Terminal Aerodrome Forecast
Issued by NWS

Home | Current Version | Previous Version | Text Only | Print | Product List | Glossary On
Versions: 1 2 3 4 5 6 7 8 9 10 11 12 13 14 15 16 17 18 19 20 21 22 23 24 25 26 27 28 29 30 31
868
FTUS43 KDLH 262339
TAFHYR
TAF
KHYR 262339Z 2700/2724 20008KT P6SM SCT070 BKN250
     FM270600 VRB03KT 5SM BR SCT010 BKN250
      TEMPO 2708/2712 1SM BR BKN012
     FM271400 16006KT P6SM OVC110
     FM271800 VRB06KT P6SM VCSH OVC090
     FM272100 VRB06KT P6SM -RA VCTS OVC045CB=

USA.gov is the U.S. government's official web portal to all federal, state and local government web resources and services.